createdAt,value
2024-03-05T00:01:00.356Z,4.07
2024-03-05T00:04:26.630Z,5.13
2024-03-05T00:07:53.932Z,4.55
2024-03-05T00:11:19.415Z,4.55
2024-03-05T00:14:47.771Z,4.28
2024-03-05T00:18:13.219Z,3.67
2024-03-05T00:21:39.063Z,4.50
2024-03-05T00:25:07.793Z,5.20
2024-03-05T00:28:33.604Z,4.97
2024-03-05T00:32:02.152Z,4.60
2024-03-05T00:35:27.575Z,5.00
2024-03-05T00:38:53.380Z,3.75
2024-03-05T00:42:18.750Z,4.55
2024-03-05T00:45:44.961Z,4.18
2024-03-05T00:49:14.025Z,4.72
2024-03-05T00:52:39.520Z,4.82
2024-03-05T00:56:05.899Z,4.53
2024-03-05T00:59:31.906Z,3.95
2024-03-05T01:02:57.385Z,3.83
2024-03-05T01:06:25.733Z,4.93
2024-03-05T01:09:51.607Z,4.32
2024-03-05T01:16:46.239Z,5.10
2024-03-05T01:20:17.468Z,4.50
2024-03-05T01:23:45.919Z,3.67
2024-03-05T01:27:11.293Z,4.38
2024-03-05T01:30:38.358Z,4.55
2024-03-05T01:34:04.559Z,4.78
2024-03-05T01:37:30.282Z,4.82
2024-03-05T01:40:58.938Z,4.45
2024-03-05T01:44:24.801Z,4.97
2024-03-05T01:47:50.911Z,3.95
2024-03-05T01:51:17.293Z,4.97
2024-03-05T01:54:43.482Z,5.38
2024-03-05T01:58:11.908Z,5.93
2024-03-05T02:01:37.962Z,5.32
2024-03-05T02:05:03.656Z,5.43
2024-03-05T02:08:29.720Z,5.60
2024-03-05T02:11:59.273Z,7.55
2024-03-05T02:15:31.620Z,5.03
2024-03-05T02:18:57.826Z,5.78
2024-03-05T02:22:25.892Z,6.68
2024-03-05T02:25:51.698Z,6.45
2024-03-05T02:29:18.092Z,5.70
2024-03-05T02:32:44.961Z,6.85
2024-03-05T02:36:11.176Z,6.60
2024-03-05T02:39:39.164Z,6.50
2024-03-05T02:43:04.947Z,6.80
2024-03-05T02:46:30.998Z,6.45
2024-03-05T02:49:56.471Z,6.43
2024-03-05T02:53:22.261Z,8.10
2024-03-05T02:56:50.848Z,7.38
2024-03-05T03:00:25.732Z,7.32
2024-03-05T03:03:51.576Z,6.47
2024-03-05T03:07:18.235Z,7.20
2024-03-05T03:10:44.082Z,7.45
2024-03-05T03:14:13.209Z,7.70
2024-03-05T03:17:38.787Z,7.72
2024-03-05T03:21:06.206Z,8.70
2024-03-05T03:24:31.582Z,7.68
2024-03-05T03:27:59.606Z,9.70
2024-03-05T03:31:29.005Z,8.52
2024-03-05T03:34:55.605Z,7.57
2024-03-05T03:38:21.436Z,8.77
2024-03-05T03:41:49.902Z,8.52
2024-03-05T03:45:15.629Z,9.20
2024-03-05T03:48:44.000Z,10.05
2024-03-05T03:52:10.256Z,8.40
2024-03-05T03:55:36.001Z,8.05
2024-03-05T03:59:01.831Z,7.97
2024-03-05T04:02:27.347Z,8.02
2024-03-05T04:05:56.154Z,6.22
2024-03-05T04:09:21.550Z,8.25
2024-03-05T04:12:47.265Z,8.25
2024-03-05T04:16:13.961Z,7.75
2024-03-05T04:19:39.424Z,7.28
2024-03-05T04:23:08.214Z,6.55
2024-03-05T04:26:39.116Z,6.47
2024-03-05T04:30:11.861Z,6.43
2024-03-05T04:37:03.779Z,7.60
2024-03-05T04:40:32.306Z,8.13
2024-03-05T04:43:58.457Z,7.15
2024-03-05T04:47:26.298Z,7.35
2024-03-05T04:50:52.514Z,6.82
2024-03-05T04:54:17.994Z,6.25
2024-03-05T04:57:46.462Z,6.05
2024-03-05T05:01:12.407Z,7.72
2024-03-05T05:04:39.674Z,5.97
2024-03-05T05:08:06.174Z,6.53
2024-03-05T05:11:31.750Z,6.78
2024-03-05T05:15:01.545Z,5.95
2024-03-05T05:18:27.331Z,6.18
2024-03-05T05:21:52.753Z,5.15
2024-03-05T05:25:21.351Z,8.05
2024-03-05T05:28:47.309Z,6.20
2024-03-05T05:32:15.361Z,6.25
2024-03-05T05:35:41.515Z,6.90
2024-03-05T05:39:10.162Z,6.90
2024-03-05T05:42:35.565Z,6.13
2024-03-05T05:46:04.589Z,6.50
2024-03-05T05:49:33.794Z,5.70
2024-03-05T05:53:00.134Z,6.68
2024-03-05T05:56:25.769Z,4.97
2024-03-05T05:59:51.527Z,5.53
2024-03-05T06:03:18.137Z,4.72
2024-03-05T06:06:46.521Z,4.40
2024-03-05T06:10:15.799Z,4.55
2024-03-05T06:13:42.113Z,3.65
2024-03-05T06:17:07.957Z,3.80
2024-03-05T06:20:33.347Z,4.43
2024-03-05T06:24:02.472Z,3.78
2024-03-05T06:27:27.871Z,4.25
2024-03-05T06:30:53.697Z,3.45
2024-03-05T06:34:20.384Z,3.65
2024-03-05T06:37:48.122Z,4.60
2024-03-05T06:41:16.841Z,3.92
2024-03-05T06:44:43.109Z,3.13
2024-03-05T06:48:17.634Z,4.15
2024-03-05T06:51:54.711Z,4.07
2024-03-05T06:55:32.272Z,3.67
2024-03-05T06:59:00.939Z,4.00
2024-03-05T07:02:28.587Z,4.30
2024-03-05T07:05:54.303Z,6.15
2024-03-05T07:09:21.078Z,6.30
2024-03-05T07:12:47.324Z,5.78
2024-03-05T07:16:18.146Z,5.55
2024-03-05T07:19:44.324Z,5.30
2024-03-05T07:23:09.769Z,5.38
2024-03-05T07:26:36.126Z,7.22
2024-03-05T07:30:01.944Z,5.70
2024-03-05T07:33:29.922Z,5.63
2024-03-05T07:36:56.798Z,5.57
2024-03-05T07:40:24.097Z,6.45
2024-03-05T07:43:49.561Z,5.78
2024-03-05T07:47:15.426Z,6.45
2024-03-05T07:50:43.667Z,6.43
2024-03-05T07:54:11.783Z,6.07
2024-03-05T07:57:39.289Z,6.63
2024-03-05T08:01:05.406Z,6.55
2024-03-05T08:04:31.198Z,7.25
2024-03-05T08:08:00.330Z,7.22
2024-03-05T08:11:26.213Z,7.43
2024-03-05T08:14:51.912Z,8.65
2024-03-05T08:18:17.714Z,7.60
2024-03-05T08:21:43.918Z,7.40
2024-03-05T08:25:14.277Z,6.82
2024-03-05T08:28:41.996Z,7.45
2024-03-05T08:32:09.833Z,6.20
2024-03-05T08:35:35.709Z,7.60
2024-03-05T08:39:01.434Z,7.05
2024-03-05T08:42:29.874Z,6.78
2024-03-05T08:45:55.640Z,6.30
2024-03-05T08:49:21.457Z,7.30
2024-03-05T08:52:47.158Z,8.25
2024-03-05T08:56:13.001Z,7.10
2024-03-05T08:59:41.034Z,8.52
2024-03-05T09:03:08.429Z,8.85
2024-03-05T09:06:34.285Z,9.55
2024-03-05T09:09:59.869Z,7.97
2024-03-05T09:13:25.736Z,8.00
2024-03-05T09:16:53.833Z,7.97
2024-03-05T09:20:19.956Z,8.10
2024-03-05T09:23:45.417Z,11.82
2024-03-05T09:27:11.176Z,10.73
2024-03-05T09:30:36.580Z,10.48
2024-03-05T09:34:05.950Z,8.48
2024-03-05T09:37:32.493Z,11.23
2024-03-05T09:40:58.527Z,7.03
2024-03-05T09:44:25.593Z,7.75
2024-03-05T09:47:51.285Z,9.68
2024-03-05T09:51:22.860Z,11.40
2024-03-05T09:54:48.990Z,10.88
2024-03-05T09:58:16.184Z,9.50
2024-03-05T10:01:46.592Z,13.15
2024-03-05T10:05:16.642Z,10.95
2024-03-05T10:08:45.167Z,9.90
2024-03-05T10:12:11.107Z,10.15
2024-03-05T10:15:38.723Z,15.60
2024-03-05T10:19:14.413Z,14.52
2024-03-05T10:22:40.660Z,13.85
2024-03-05T10:26:25.890Z,12.88
2024-03-05T10:29:54.370Z,9.73
2024-03-05T10:33:20.025Z,15.02
2024-03-05T10:36:46.570Z,13.15
2024-03-05T10:40:12.693Z,14.38
2024-03-05T10:43:38.993Z,17.73
2024-03-05T10:47:07.850Z,13.80
2024-03-05T10:50:33.754Z,14.60
2024-03-05T10:54:00.550Z,10.45
2024-03-05T10:57:30.329Z,12.90
2024-03-05T11:00:53.745Z,10.88
2024-03-05T11:04:24.469Z,8.45
2024-03-05T11:07:50.473Z,10.57
2024-03-05T11:11:20.580Z,11.30
2024-03-05T11:14:47.982Z,10.40
2024-03-05T11:18:28.314Z,10.57
2024-03-05T11:21:56.769Z,10.43
2024-03-05T11:25:34.000Z,8.50
2024-03-05T11:29:06.293Z,14.52
2024-03-05T11:32:32.740Z,11.05
2024-03-05T11:35:58.516Z,9.40
2024-03-05T11:39:30.265Z,7.65
2024-03-05T11:42:56.826Z,8.80
2024-03-05T11:46:37.397Z,8.70
2024-03-05T11:50:08.375Z,9.80
2024-03-05T11:53:34.718Z,9.07
2024-03-05T11:57:03.739Z,8.10
2024-03-05T12:00:31.146Z,8.20
2024-03-05T12:04:05.100Z,8.13
2024-03-05T12:07:30.887Z,8.60
2024-03-05T12:11:05.555Z,14.10
2024-03-05T12:14:36.029Z,9.40
2024-03-05T12:18:01.943Z,9.30
2024-03-05T12:21:29.026Z,7.97
2024-03-05T12:24:55.358Z,9.20
2024-03-05T12:28:21.442Z,7.57
2024-03-05T12:31:49.569Z,7.88
2024-03-05T12:35:15.912Z,5.63
2024-03-05T12:38:41.790Z,6.15
2024-03-05T12:42:16.423Z,6.28
2024-03-05T12:45:42.238Z,6.97
2024-03-05T12:49:11.033Z,6.40
2024-03-05T12:52:37.049Z,6.60
2024-03-05T12:56:06.690Z,7.32
2024-03-05T12:59:32.500Z,7.32
2024-03-05T13:02:57.924Z,8.82
2024-03-05T13:06:26.982Z,7.97
2024-03-05T13:09:52.465Z,8.25
2024-03-05T13:13:18.283Z,7.80
2024-03-05T13:16:44.377Z,7.05
2024-03-05T13:20:20.155Z,8.88
2024-03-05T13:23:49.012Z,7.00
2024-03-05T13:27:14.419Z,10.45
2024-03-05T13:30:40.271Z,7.47
2024-03-05T13:34:10.604Z,8.90
2024-03-05T13:37:38.313Z,8.55
2024-03-05T13:41:08.105Z,9.32
2024-03-05T13:44:34.009Z,7.50
2024-03-05T13:47:59.793Z,5.88
2024-03-05T13:51:25.545Z,7.68
2024-03-05T13:54:51.313Z,9.00
2024-03-05T13:58:19.766Z,6.38
2024-03-05T14:01:46.946Z,10.68
2024-03-05T14:05:19.660Z,7.03
2024-03-05T14:08:45.675Z,7.00
2024-03-05T14:12:36.704Z,8.65
2024-03-05T14:16:08.699Z,9.35
2024-03-05T14:19:35.030Z,7.85
2024-03-05T14:23:00.896Z,9.05
2024-03-05T14:26:26.916Z,9.30
2024-03-05T14:29:53.646Z,10.75
2024-03-05T14:33:22.164Z,10.88
2024-03-05T14:36:47.878Z,9.25
2024-03-05T14:40:16.748Z,9.50
2024-03-05T14:43:45.133Z,11.25
2024-03-05T14:47:25.548Z,11.60
2024-03-05T14:50:54.337Z,12.15
2024-03-05T14:54:20.309Z,10.85
2024-03-05T14:57:46.491Z,9.32
2024-03-05T15:01:12.591Z,11.10
2024-03-05T15:04:38.360Z,8.02
2024-03-05T15:08:07.626Z,8.60
2024-03-05T15:11:33.638Z,8.52
2024-03-05T15:15:00.044Z,8.82
2024-03-05T15:18:26.109Z,7.68
2024-03-05T15:21:52.124Z,7.10
2024-03-05T15:25:23.042Z,8.18
2024-03-05T15:28:49.111Z,7.05
2024-03-05T15:32:14.668Z,9.43
2024-03-05T15:35:40.735Z,8.23
2024-03-05T15:39:09.754Z,9.07
2024-03-05T15:42:37.776Z,8.32
2024-03-05T15:46:06.077Z,8.20
2024-03-05T15:49:32.164Z,7.72
2024-03-05T15:52:58.254Z,8.00
2024-03-05T15:56:36.006Z,7.05
2024-03-05T16:00:14.377Z,6.63
2024-03-05T16:03:57.162Z,7.43
2024-03-05T16:07:29.130Z,6.38
2024-03-05T16:10:55.406Z,8.63
2024-03-05T16:14:21.426Z,8.95
2024-03-05T16:17:49.479Z,9.43
2024-03-05T16:21:15.468Z,9.55
2024-03-05T16:24:42.048Z,8.57
2024-03-05T16:28:07.726Z,7.22
2024-03-05T16:31:34.192Z,9.27
2024-03-05T16:35:02.276Z,7.97
2024-03-05T16:38:30.204Z,9.35
2024-03-05T16:41:56.498Z,8.52
2024-03-05T16:45:22.901Z,9.48
2024-03-05T16:48:48.700Z,9.30
2024-03-05T16:52:16.880Z,8.95
2024-03-05T16:55:43.346Z,9.35
2024-03-05T16:59:09.244Z,8.73
2024-03-05T17:02:36.417Z,8.90
2024-03-05T17:06:06.701Z,8.90
2024-03-05T17:09:35.084Z,9.25
2024-03-05T17:13:05.269Z,10.65
2024-03-05T17:16:31.355Z,8.80
2024-03-05T17:20:00.758Z,9.95
2024-03-05T17:23:27.986Z,11.02
2024-03-05T17:26:57.662Z,11.65
2024-03-05T17:30:23.263Z,11.48
2024-03-05T17:33:50.935Z,12.60
2024-03-05T17:37:17.359Z,11.68
2024-03-05T17:40:42.983Z,13.20
2024-03-05T17:44:13.470Z,12.30
2024-03-05T17:47:42.558Z,15.80
2024-03-05T17:51:11.846Z,14.98
2024-03-05T17:54:37.799Z,15.18
2024-03-05T17:58:03.669Z,15.10
2024-03-05T18:01:35.075Z,17.30
2024-03-05T18:05:00.687Z,16.65
2024-03-05T18:08:26.970Z,15.75
2024-03-05T18:11:53.518Z,14.25
2024-03-05T18:15:21.093Z,14.45
2024-03-05T18:18:50.325Z,13.10
2024-03-05T18:22:17.498Z,14.45
2024-03-05T18:25:45.104Z,14.40
2024-03-05T18:29:10.897Z,15.70
2024-03-05T18:32:37.072Z,15.98
2024-03-05T18:36:05.757Z,13.93
2024-03-05T18:39:31.691Z,14.40
2024-03-05T18:42:58.536Z,15.25
2024-03-05T18:46:26.102Z,14.77
2024-03-05T18:49:52.023Z,16.05
2024-03-05T18:53:22.074Z,17.35
2024-03-05T18:56:54.268Z,17.15
2024-03-05T19:00:20.094Z,14.15
2024-03-05T19:03:46.221Z,13.73
2024-03-05T19:07:11.685Z,15.63
2024-03-05T19:10:40.634Z,15.23
2024-03-05T19:14:08.486Z,15.02
2024-03-05T19:17:34.687Z,14.95
2024-03-05T19:21:01.196Z,15.18
2024-03-05T19:24:28.360Z,15.15
2024-03-05T19:27:56.688Z,15.20
2024-03-05T19:31:23.074Z,15.50
2024-03-05T19:34:48.636Z,18.00
2024-03-05T19:38:14.591Z,16.27
2024-03-05T19:41:40.544Z,22.50
2024-03-05T19:45:10.447Z,19.98
2024-03-05T19:48:36.245Z,18.50
2024-03-05T19:52:08.840Z,15.75
2024-03-05T19:55:35.056Z,16.52
2024-03-05T19:59:00.586Z,15.70
2024-03-05T20:02:29.689Z,15.23
2024-03-05T20:05:55.113Z,15.77
2024-03-05T20:09:21.832Z,16.00
2024-03-05T20:12:47.649Z,13.68
2024-03-05T20:16:13.898Z,15.45
2024-03-05T20:19:43.933Z,15.02
2024-03-05T20:23:10.288Z,14.68
2024-03-05T20:26:36.122Z,15.70
2024-03-05T20:30:02.490Z,15.00
2024-03-05T20:33:28.498Z,14.82
2024-03-05T20:36:57.026Z,13.93
2024-03-05T20:40:28.845Z,14.20
2024-03-05T20:43:54.847Z,15.83
2024-03-05T20:47:20.482Z,14.80
2024-03-05T20:50:47.866Z,15.73
2024-03-05T20:54:16.967Z,15.43
2024-03-05T20:57:44.798Z,16.15
2024-03-05T21:01:12.157Z,14.32
2024-03-05T21:04:38.086Z,15.63
2024-03-05T21:08:03.646Z,14.23
2024-03-05T21:11:32.151Z,13.52
2024-03-05T21:14:58.172Z,13.90
2024-03-05T21:18:24.959Z,14.82
2024-03-05T21:21:50.840Z,14.65
2024-03-05T21:25:16.239Z,15.70
2024-03-05T21:28:45.332Z,15.30
2024-03-05T21:32:10.983Z,15.48
2024-03-05T21:35:36.788Z,16.38
2024-03-05T21:39:02.954Z,13.55
2024-03-05T21:42:28.784Z,12.57
2024-03-05T21:45:57.537Z,20.60
2024-03-05T21:49:22.990Z,20.73
2024-03-05T21:52:51.407Z,22.33
2024-03-05T21:56:17.168Z,20.33
2024-03-05T21:59:42.629Z,21.58
2024-03-05T22:03:17.076Z,25.60
2024-03-05T22:06:42.322Z,26.20
2024-03-05T22:10:08.649Z,23.90
2024-03-05T22:13:34.585Z,25.65
2024-03-05T22:16:59.979Z,16.75
2024-03-05T22:20:28.492Z,15.70
2024-03-05T22:23:54.480Z,17.92
2024-03-05T22:27:20.316Z,23.20
2024-03-05T22:30:46.336Z,24.15
2024-03-05T22:34:11.797Z,19.35
2024-03-05T22:37:40.444Z,20.70
2024-03-05T22:41:06.452Z,25.85
2024-03-05T22:44:32.253Z,16.73
2024-03-05T22:47:58.106Z,17.35
2024-03-05T22:51:25.836Z,15.13
2024-03-05T22:54:54.228Z,14.35
2024-03-05T22:58:20.383Z,13.35
2024-03-05T23:01:46.311Z,14.32
2024-03-05T23:05:11.937Z,16.88
2024-03-05T23:08:37.695Z,17.55
2024-03-05T23:12:06.181Z,15.30
2024-03-05T23:15:31.699Z,14.45
2024-03-05T23:18:57.742Z,14.77
2024-03-05T23:22:23.364Z,15.02
2024-03-05T23:25:49.485Z,15.07
2024-03-05T23:29:18.806Z,13.68
2024-03-05T23:32:44.394Z,13.95
2024-03-05T23:36:10.894Z,18.50
2024-03-05T23:39:36.736Z,23.45
2024-03-05T23:43:02.128Z,25.63
2024-03-05T23:46:30.506Z,21.05
2024-03-05T23:49:55.999Z,17.42
2024-03-05T23:53:21.978Z,13.68
2024-03-05T23:56:47.417Z,13.32
